Time;durP1;ratioP1;P1;durP2;ratioP2;P2;SDS_P1;SDS_P2;PMS_P1;PMS_P2;Temp;Humidity;BMP_temperature;BMP_pressure;BME280_temperature;BME280_humidity;BME280_pressure;Samples;Min_cycle;Max_cycle;Signal;HPM_P1;HPM_P2
2023/04/21 00:00:23;;;;;;;23.65;13.80;;;8.30;99.90;;;;;;5103252;28;20058;-77
2023/04/21 00:02:49;;;;;;;22.23;13.50;;;8.30;99.90;;;;;;5104626;28;20044;-77
2023/04/21 00:05:14;;;;;;;29.15;13.07;;;8.40;99.90;;;;;;5102800;28;20049;-77
2023/04/21 00:07:40;;;;;;;24.20;12.82;;;8.40;99.90;;;;;;5104679;28;20040;-77
2023/04/21 00:10:07;;;;;;;27.70;12.18;;;9.10;99.90;;;;;;5085467;28;20039;-77
2023/04/21 00:12:33;;;;;;;20.70;13.00;;;8.30;99.90;;;;;;5103540;28;20047;-77
2023/04/21 00:14:59;;;;;;;26.40;13.93;;;8.50;99.90;;;;;;5086231;28;20043;-77
2023/04/21 00:17:25;;;;;;;25.05;12.57;;;8.50;99.90;;;;;;5086453;28;20514;-77
2023/04/21 00:19:50;;;;;;;19.95;12.88;;;8.60;99.90;;;;;;5102721;28;20048;-77
2023/04/21 00:22:17;;;;;;;23.83;13.32;;;8.30;99.90;;;;;;5102571;28;20101;-76
2023/04/21 00:24:43;;;;;;;24.42;12.82;;;8.90;99.90;;;;;;5102698;28;20522;-77
2023/04/21 00:27:10;;;;;;;26.15;14.07;;;8.30;99.90;;;;;;5102396;28;20502;-77
2023/04/21 00:29:36;;;;;;;25.15;13.50;;;8.90;99.90;;;;;;5102721;28;20044;-76
2023/04/21 00:32:02;;;;;;;25.90;14.20;;;8.30;99.90;;;;;;5102411;28;20576;-77
2023/04/21 00:34:28;;;;;;;18.63;12.60;;;8.20;99.90;;;;;;5102984;28;20043;-77
2023/04/21 00:36:54;;;;;;;26.77;14.18;;;8.30;99.90;;;;;;5085277;28;20040;-77
2023/04/21 00:39:20;;;;;;;27.35;13.93;;;9.30;99.90;;;;;;5085503;28;20080;-77
2023/04/21 00:41:45;;;;;;;18.70;12.20;;;8.20;99.90;;;;;;5102415;28;20111;-77
2023/04/21 00:44:11;;;;;;;28.02;13.10;;;8.20;99.90;;;;;;5101857;28;20089;-78
2023/04/21 00:46:37;;;;;;;24.17;12.70;;;8.10;99.90;;;;;;5102529;28;20055;-78
2023/04/21 00:49:05;;;;;;;30.88;13.88;;;8.10;99.90;;;;;;5102703;28;20047;-77
2023/04/21 00:51:33;;;;;;;23.45;12.95;;;8.20;99.90;;;;;;5103673;28;20112;-78
2023/04/21 00:54:00;;;;;;;27.60;13.80;;;8.60;99.90;;;;;;5102224;28;20518;-78
2023/04/21 00:56:29;;;;;;;22.83;13.25;;;9.10;99.90;;;;;;5102393;28;20050;-78
2023/04/21 00:58:57;;;;;;;22.42;13.18;;;8.00;99.90;;;;;;5085800;28;20040;-78
2023/04/21 01:01:23;;;;;;;23.08;12.90;;;8.10;99.90;;;;;;5085003;28;20058;-77
2023/04/21 01:03:50;;;;;;;22.25;12.95;;;8.00;99.90;;;;;;5085790;28;20066;-77
2023/04/21 01:06:17;;;;;;;23.13;14.43;;;8.00;99.90;;;;;;5102226;28;20120;-77
2023/04/21 01:08:47;;;;;;;20.05;12.52;;;8.00;99.90;;;;;;5086093;28;20113;-78
2023/04/21 01:11:13;;;;;;;20.52;13.52;;;6.50;99.90;;;;;;5102474;28;20469;-78
2023/04/21 01:13:39;;;;;;;19.60;12.48;;;7.90;99.90;;;;;;5102052;28;20494;-78
2023/04/21 01:16:06;;;;;;;21.13;13.00;;;7.90;99.90;;;;;;5085231;28;20074;-78
2023/04/21 01:18:33;;;;;;;23.13;13.02;;;7.90;99.90;;;;;;5101998;28;20195;-78
2023/04/21 01:20:59;;;;;;;22.23;13.07;;;7.90;99.90;;;;;;5085700;28;20399;-78
2023/04/21 01:23:24;;;;;;;22.02;13.27;;;7.90;99.90;;;;;;5102119;28;20050;-77
2023/04/21 01:25:51;;;;;;;23.55;13.10;;;7.90;99.90;;;;;;5085512;28;20134;-77
2023/04/21 01:28:24;;;;;;;27.85;15.23;;;7.90;99.90;;;;;;5085008;28;20043;-77
2023/04/21 01:30:50;;;;;;;25.58;12.88;;;7.90;99.90;;;;;;5103395;28;20130;-77
2023/04/21 01:33:17;;;;;;;25.52;12.68;;;7.90;99.90;;;;;;5102569;28;20048;-77
2023/04/21 01:35:43;;;;;;;22.33;12.68;;;8.10;99.90;;;;;;5103543;28;20402;-77
2023/04/21 01:38:09;;;;;;;19.92;12.82;;;7.30;99.90;;;;;;5102192;28;20043;-77
2023/04/21 01:40:35;;;;;;;23.42;13.18;;;7.90;99.90;;;;;;5084798;28;20051;-77
2023/04/21 01:43:02;;;;;;;25.67;13.63;;;7.80;99.90;;;;;;5085333;28;20043;-77
2023/04/21 01:45:31;;;;;;;25.42;12.70;;;7.90;99.90;;;;;;5118338;27;20055;-77
2023/04/21 01:47:57;;;;;;;27.00;13.68;;;7.80;99.90;;;;;;5123792;28;20035;-77
2023/04/21 01:50:22;;;;;;;25.45;13.68;;;7.80;99.90;;;;;;5090650;27;20062;-77
2023/04/21 01:52:48;;;;;;;25.08;13.77;;;8.30;99.90;;;;;;5108955;27;20095;-77
2023/04/21 01:55:14;;;;;;;22.77;13.68;;;7.80;99.90;;;;;;5108898;27;20043;-77
2023/04/21 01:57:40;;;;;;;23.15;12.40;;;7.80;99.90;;;;;;5091665;27;20049;-77
2023/04/21 02:00:08;;;;;;;25.58;14.05;;;8.30;99.90;;;;;;5091987;27;20304;-77
2023/04/21 02:02:33;;;;;;;21.55;13.02;;;7.70;99.90;;;;;;5127317;27;20100;-78
2023/04/21 02:04:59;;;;;;;25.52;13.52;;;7.80;99.90;;;;;;5127008;27;20074;-76
2023/04/21 02:07:25;;;;;;;24.15;13.85;;;8.90;99.90;;;;;;5091537;27;20054;-77
2023/04/21 02:09:50;;;;;;;24.63;13.05;;;7.80;99.90;;;;;;5126983;27;20043;-77
2023/04/21 02:12:16;;;;;;;26.52;13.80;;;7.80;99.90;;;;;;5127193;27;20127;-77
2023/04/21 02:14:42;;;;;;;19.92;13.23;;;8.80;99.90;;;;;;5126919;27;20126;-77
2023/04/21 02:17:07;;;;;;;21.83;12.98;;;8.60;99.90;;;;;;5108996;27;20126;-77
2023/04/21 02:19:33;;;;;;;21.95;12.95;;;7.80;99.90;;;;;;5091971;27;20135;-77
2023/04/21 02:21:59;;;;;;;32.25;13.63;;;7.90;99.90;;;;;;5091879;27;20071;-77
2023/04/21 02:24:24;;;;;;;25.10;14.07;;;8.50;99.90;;;;;;5108587;27;20442;-78
2023/04/21 02:26:50;;;;;;;19.45;13.48;;;7.70;99.90;;;;;;5127063;27;20080;-77
2023/04/21 02:29:16;;;;;;;23.25;13.35;;;8.30;99.90;;;;;;5109261;27;20055;-77
2023/04/21 02:31:41;;;;;;;23.23;14.02;;;8.00;99.90;;;;;;5108793;27;20061;-77
2023/04/21 02:34:07;;;;;;;21.48;13.43;;;7.60;99.90;;;;;;5128216;27;20101;-77
2023/04/21 02:36:33;;;;;;;34.28;15.10;;;7.60;99.90;;;;;;5127531;27;20074;-77
2023/04/21 02:38:58;;;;;;;26.75;13.55;;;7.60;99.90;;;;;;5110044;27;20083;-78
2023/04/21 02:41:24;;;;;;;25.08;14.57;;;7.60;99.90;;;;;;5107966;27;20047;-77
2023/04/21 02:43:50;;;;;;;22.73;13.52;;;7.60;99.90;;;;;;5126739;27;20039;-77
2023/04/21 02:46:15;;;;;;;25.67;14.65;;;7.60;99.90;;;;;;5091365;27;20055;-77
2023/04/21 02:48:41;;;;;;;24.35;14.55;;;7.50;99.90;;;;;;5091183;27;20046;-77
2023/04/21 02:51:14;;;;;;;28.63;14.05;;;7.50;99.90;;;;;;5126961;27;20505;-78
2023/04/21 02:53:41;;;;;;;25.48;15.10;;;7.70;99.90;;;;;;5107771;27;20722;-77
2023/04/21 02:56:10;;;;;;;28.55;14.32;;;7.90;99.90;;;;;;5107909;27;20047;-78
2023/04/21 02:58:36;;;;;;;33.17;14.27;;;7.50;99.90;;;;;;5107978;27;20069;-77
2023/04/21 03:01:03;;;;;;;26.10;14.50;;;8.90;99.90;;;;;;5090086;27;20606;-77
2023/04/21 03:03:30;;;;;;;23.48;13.45;;;7.40;99.90;;;;;;5126328;27;20366;-77
2023/04/21 03:06:01;;;;;;;22.95;13.45;;;7.40;99.90;;;;;;5074084;27;20069;-77
2023/04/21 03:08:27;;;;;;;21.08;13.82;;;8.60;99.90;;;;;;5126391;27;20530;-78
2023/04/21 03:10:52;;;;;;;23.52;13.68;;;8.00;99.90;;;;;;5107805;27;20111;-77
2023/04/21 03:13:19;;;;;;;27.13;14.65;;;7.40;99.90;;;;;;5126050;27;20051;-77
2023/04/21 03:15:45;;;;;;;18.55;13.25;;;8.20;99.90;;;;;;5107340;27;20601;-77
2023/04/21 03:18:11;;;;;;;26.98;13.00;;;7.40;99.90;;;;;;5107272;27;20455;-77
2023/04/21 03:20:36;;;;;;;20.88;14.27;;;8.30;99.90;;;;;;5126043;27;20047;-77
2023/04/21 03:23:02;;;;;;;27.05;13.45;;;7.40;99.90;;;;;;5125351;27;20039;-77
2023/04/21 03:25:28;;;;;;;24.70;14.52;;;7.40;99.90;;;;;;5126162;27;20031;-77
2023/04/21 03:27:54;;;;;;;33.83;14.18;;;7.40;99.90;;;;;;5125350;27;20046;-77
2023/04/21 03:30:21;;;;;;;25.63;13.32;;;7.40;99.90;;;;;;5090347;27;20036;-77
2023/04/21 03:32:47;;;;;;;22.65;12.77;;;7.40;99.90;;;;;;5107100;27;20075;-77
2023/04/21 03:35:13;;;;;;;22.73;11.90;;;8.70;99.90;;;;;;5090014;27;20430;-78
2023/04/21 03:37:38;;;;;;;22.58;12.82;;;7.50;99.90;;;;;;5107575;27;20082;-78
2023/04/21 03:40:05;;;;;;;21.67;12.75;;;8.20;99.90;;;;;;5089714;27;20455;-77
2023/04/21 03:42:31;;;;;;;20.27;11.40;;;7.50;99.90;;;;;;5107203;27;20047;-77
2023/04/21 03:45:01;;;;;;;27.63;13.20;;;7.50;99.90;;;;;;5106276;27;20053;-77
2023/04/21 03:47:26;;;;;;;17.13;12.75;;;8.20;99.90;;;;;;5090005;27;20093;-77
2023/04/21 03:49:52;;;;;;;20.85;11.90;;;9.00;99.90;;;;;;5089493;27;20079;-77
2023/04/21 03:52:18;;;;;;;22.85;12.27;;;7.50;99.90;;;;;;5124523;27;20058;-78
2023/04/21 03:54:43;;;;;;;17.92;13.48;;;7.90;99.90;;;;;;5089839;27;20469;-77
2023/04/21 03:57:09;;;;;;;19.73;11.13;;;8.10;99.90;;;;;;5105840;27;20043;-77
2023/04/21 03:59:35;;;;;;;22.13;12.23;;;7.50;99.90;;;;;;5089817;27;20043;-77
2023/04/21 04:02:00;;;;;;;23.58;11.82;;;7.90;99.90;;;;;;5106058;27;20046;-76
2023/04/21 04:04:26;;;;;;;21.42;11.52;;;7.40;99.90;;;;;;5106580;27;20043;-76
2023/04/21 04:06:52;;;;;;;18.08;11.00;;;8.00;99.90;;;;;;5106269;27;20055;-77
2023/04/21 04:09:17;;;;;;;17.48;11.02;;;7.50;99.90;;;;;;5089018;27;20054;-78
2023/04/21 04:11:43;;;;;;;21.85;12.05;;;8.00;99.90;;;;;;5124998;27;20127;-78
2023/04/21 04:14:09;;;;;;;17.85;11.68;;;7.50;99.90;;;;;;5105236;27;20438;-77
2023/04/21 04:16:34;;;;;;;18.27;12.02;;;8.20;99.90;;;;;;5125074;27;20075;-78
2023/04/21 04:19:00;;;;;;;19.58;10.90;;;7.80;99.90;;;;;;5089848;27;20123;-78
2023/04/21 04:21:27;;;;;;;19.80;10.65;;;7.50;99.90;;;;;;5125160;27;20039;-78
2023/04/21 04:23:53;;;;;;;21.27;12.10;;;7.50;99.90;;;;;;5124938;27;20046;-78
2023/04/21 04:26:21;;;;;;;20.58;11.93;;;7.60;99.90;;;;;;5106245;27;20379;-78
2023/04/21 04:28:46;;;;;;;17.65;10.63;;;7.50;99.90;;;;;;5106653;27;20488;-77
2023/04/21 04:31:13;;;;;;;19.52;12.43;;;7.50;99.90;;;;;;5105838;27;20143;-78
2023/04/21 04:33:42;;;;;;;19.15;10.95;;;7.90;99.90;;;;;;5106787;28;20486;-78
2023/04/21 04:36:10;;;;;;;21.70;10.40;;;7.50;99.90;;;;;;5105745;28;20099;-78
2023/04/21 04:38:36;;;;;;;17.63;11.25;;;8.40;99.90;;;;;;5106254;27;20090;-77
2023/04/21 04:41:03;;;;;;;20.38;10.60;;;8.40;99.90;;;;;;5106226;28;20477;-77
2023/04/21 04:43:32;;;;;;;20.10;10.32;;;7.70;99.90;;;;;;5089669;28;20402;-80
2023/04/21 04:45:58;;;;;;;18.90;11.15;;;8.20;99.90;;;;;;5072614;28;20058;-79
2023/04/21 04:48:25;;;;;;;19.42;10.88;;;7.70;99.90;;;;;;5105320;28;20043;-79
2023/04/21 04:50:50;;;;;;;21.92;10.93;;;8.20;99.90;;;;;;5106489;28;20047;-80
2023/04/21 04:53:16;;;;;;;23.75;9.88;;;7.70;99.90;;;;;;5106072;28;20036;-80
2023/04/21 04:55:42;;;;;;;23.67;11.25;;;8.40;99.90;;;;;;5106412;28;20495;-79
2023/04/21 04:58:07;;;;;;;16.02;9.40;;;8.50;99.90;;;;;;5106133;28;20075;-79
2023/04/21 05:00:33;;;;;;;15.90;10.95;;;8.80;99.90;;;;;;5071753;28;20050;-79
2023/04/21 05:02:59;;;;;;;21.38;10.70;;;7.80;99.90;;;;;;5106136;28;20050;-77
2023/04/21 05:05:25;;;;;;;20.23;10.57;;;7.90;99.90;;;;;;5105274;28;20646;-77
2023/04/21 05:07:51;;;;;;;17.00;9.57;;;7.90;99.90;;;;;;5106054;28;20039;-78
2023/04/21 05:10:17;;;;;;;23.25;10.57;;;8.40;99.90;;;;;;5105710;28;20055;-77
2023/04/21 05:12:42;;;;;;;26.00;9.95;;;8.00;99.90;;;;;;5089299;28;20043;-78
2023/04/21 05:15:09;;;;;;;19.48;10.35;;;8.00;99.90;;;;;;5105874;28;20043;-80
2023/04/21 05:17:34;;;;;;;19.40;10.48;;;8.10;99.90;;;;;;5106129;28;20100;-78
2023/04/21 05:20:00;;;;;;;19.67;9.45;;;8.60;99.90;;;;;;5105893;28;20047;-78
2023/04/21 05:22:25;;;;;;;19.95;9.27;;;8.70;99.90;;;;;;5105218;28;20054;-77
2023/04/21 05:24:52;;;;;;;19.45;8.77;;;8.30;99.90;;;;;;5106946;27;20047;-81
2023/04/21 05:27:17;;;;;;;21.23;10.98;;;8.30;99.90;;;;;;5092436;27;20058;-77
2023/04/21 05:29:43;;;;;;;17.42;9.40;;;8.40;99.90;;;;;;5110364;27;20045;-80
2023/04/21 05:32:11;;;;;;;17.48;8.75;;;8.90;99.90;;;;;;5109989;27;20043;-79
2023/04/21 05:34:37;;;;;;;16.23;10.30;;;8.50;99.90;;;;;;5109675;27;20047;-77
2023/04/21 05:37:03;;;;;;;21.23;8.98;;;8.60;99.90;;;;;;5092172;27;20031;-79
2023/04/21 05:39:29;;;;;;;27.63;9.50;;;8.60;99.90;;;;;;5108935;27;20042;-78
2023/04/21 05:41:55;;;;;;;15.90;8.23;;;8.70;99.90;;;;;;5109512;27;20047;-80
2023/04/21 05:44:20;;;;;;;16.13;9.02;;;8.80;99.90;;;;;;5108835;27;20963;-85
2023/04/21 05:46:46;;;;;;;26.33;9.77;;;8.80;99.90;;;;;;5109960;27;20055;-82
2023/04/21 05:49:12;;;;;;;18.00;8.98;;;8.90;99.90;;;;;;5091841;27;20039;-78
2023/04/21 05:51:38;;;;;;;17.75;8.38;;;8.60;99.90;;;;;;5109266;27;20050;-78
2023/04/21 05:54:04;;;;;;;17.45;8.35;;;9.00;99.90;;;;;;5108526;27;20039;-78
2023/04/21 05:56:29;;;;;;;17.30;8.23;;;9.00;99.90;;;;;;5074810;27;20054;-78
2023/04/21 05:58:55;;;;;;;17.85;9.13;;;9.10;99.90;;;;;;5108947;27;20047;-78
2023/04/21 06:01:21;;;;;;;15.38;8.38;;;9.10;99.90;;;;;;5108160;27;20055;-78
2023/04/21 06:03:49;;;;;;;18.38;9.80;;;9.20;99.90;;;;;;5109301;27;20075;-78
2023/04/21 06:06:16;;;;;;;15.30;7.53;;;10.00;99.90;;;;;;5108506;27;20050;-78
2023/04/21 06:08:42;;;;;;;17.05;7.78;;;9.30;99.90;;;;;;5109330;27;20040;-78
2023/04/21 06:11:08;;;;;;;13.18;8.43;;;9.40;99.90;;;;;;5107998;27;20041;-78
2023/04/21 06:13:33;;;;;;;20.67;9.73;;;9.40;99.90;;;;;;5090962;27;20131;-78
2023/04/21 06:15:59;;;;;;;16.40;8.93;;;9.90;99.90;;;;;;5091657;27;20043;-78
2023/04/21 06:18:29;;;;;;;14.88;8.57;;;9.60;99.90;;;;;;5090903;27;20071;-78
2023/04/21 06:20:55;;;;;;;25.27;8.45;;;9.80;99.90;;;;;;5127632;27;20081;-78
2023/04/21 06:23:21;;;;;;;16.73;8.05;;;9.60;99.90;;;;;;5091124;27;20043;-78
2023/04/21 06:25:57;;;;;;;17.90;9.18;;;10.10;99.90;;;;;;5108879;27;20103;-80
2023/04/21 06:28:23;;;;;;;16.23;7.90;;;9.70;99.90;;;;;;5108167;27;20106;-78
2023/04/21 06:30:48;;;;;;;19.75;8.23;;;9.90;99.90;;;;;;5126782;27;20047;-79
2023/04/21 06:33:14;;;;;;;15.27;7.85;;;9.90;99.90;;;;;;5092063;27;20043;-79
2023/04/21 06:35:40;;;;;;;13.73;7.85;;;9.90;99.90;;;;;;5107364;27;20459;-79
2023/04/21 06:38:07;;;;;;;15.13;7.53;;;10.20;99.90;;;;;;5127516;27;21021;-79
2023/04/21 06:40:33;;;;;;;10.90;7.50;;;10.60;99.90;;;;;;5091454;27;20398;-79
2023/04/21 06:42:59;;;;;;;15.13;7.78;;;10.20;99.90;;;;;;5108864;27;20054;-78
2023/04/21 06:45:25;;;;;;;14.70;7.75;;;10.30;99.90;;;;;;5090828;27;20061;-79
2023/04/21 06:47:50;;;;;;;14.77;8.07;;;10.40;99.90;;;;;;5126603;27;20054;-78
2023/04/21 06:50:16;;;;;;;13.80;7.53;;;10.50;99.90;;;;;;5126582;27;20045;-78
2023/04/21 06:52:42;;;;;;;17.15;8.13;;;10.50;99.90;;;;;;5125945;27;20051;-78
2023/04/21 06:55:08;;;;;;;16.55;7.57;;;10.60;99.90;;;;;;5108602;27;20082;-79
2023/04/21 06:57:33;;;;;;;18.58;9.27;;;10.70;99.90;;;;;;5091123;27;20046;-79
2023/04/21 06:59:59;;;;;;;16.10;8.18;;;10.80;99.90;;;;;;5074143;27;20042;-80
2023/04/21 07:02:25;;;;;;;10.60;7.75;;;10.80;99.90;;;;;;5108034;27;20078;-81
2023/04/21 07:04:50;;;;;;;19.60;7.03;;;11.10;99.90;;;;;;5107459;27;20055;-80
2023/04/21 07:07:16;;;;;;;16.25;8.48;;;11.00;99.90;;;;;;5090569;27;20054;-81
2023/04/21 07:09:46;;;;;;;13.88;7.45;;;11.10;99.90;;;;;;5107782;27;20058;-80
2023/04/21 07:12:11;;;;;;;20.25;7.45;;;10.00;99.90;;;;;;5091440;27;20043;-77
2023/04/21 07:14:37;;;;;;;14.52;7.30;;;11.20;99.90;;;;;;5107412;27;20375;-79
2023/04/21 07:17:03;;;;;;;20.85;7.10;;;11.40;99.90;;;;;;5126464;27;20133;-78
2023/04/21 07:19:28;;;;;;;16.42;7.25;;;11.40;99.90;;;;;;5090272;27;20386;-79
2023/04/21 07:21:54;;;;;;;18.42;7.60;;;11.40;99.90;;;;;;5089983;27;20039;-79
2023/04/21 07:24:20;;;;;;;17.30;6.85;;;11.50;99.90;;;;;;5090231;27;20188;-79
2023/04/21 07:26:45;;;;;;;13.68;7.43;;;11.60;99.90;;;;;;5089712;27;20054;-85
2023/04/21 07:29:11;;;;;;;13.10;6.82;;;11.70;99.90;;;;;;5090330;27;20031;-78
2023/04/21 07:31:37;;;;;;;25.15;12.15;;;11.70;99.90;;;;;;5107316;27;20060;-78
2023/04/21 07:34:02;;;;;;;18.27;7.32;;;11.80;99.90;;;;;;5090911;27;20054;-78
2023/04/21 07:36:29;;;;;;;15.68;7.07;;;11.90;99.90;;;;;;5073122;27;20074;-81
2023/04/21 07:38:55;;;;;;;18.48;8.38;;;12.00;99.90;;;;;;5073166;27;20043;-79
2023/04/21 07:41:21;;;;;;;19.13;6.93;;;12.00;99.90;;;;;;5107030;27;20046;-78
2023/04/21 07:43:47;;;;;;;17.48;6.72;;;12.10;99.90;;;;;;5106325;27;20550;-78
2023/04/21 07:46:13;;;;;;;14.95;6.78;;;12.10;99.90;;;;;;5089831;27;20059;-78
2023/04/21 07:48:39;;;;;;;18.90;7.95;;;12.20;99.90;;;;;;5088497;27;20433;-78
2023/04/21 07:51:05;;;;;;;14.43;7.90;;;12.30;99.90;;;;;;5125601;27;20106;-78
2023/04/21 07:53:31;;;;;;;17.73;7.13;;;12.40;99.90;;;;;;5089379;27;20050;-78
2023/04/21 07:55:57;;;;;;;15.55;6.68;;;12.40;99.90;;;;;;5106544;27;20069;-78
2023/04/21 07:58:23;;;;;;;21.05;7.22;;;12.50;99.90;;;;;;5125105;27;20081;-79
2023/04/21 08:00:49;;;;;;;14.60;7.18;;;12.60;99.90;;;;;;5106437;27;20039;-78
2023/04/21 08:03:15;;;;;;;19.52;6.55;;;13.50;99.90;;;;;;5125114;27;20482;-78
2023/04/21 08:05:40;;;;;;;19.23;7.25;;;12.80;99.90;;;;;;5106170;27;20054;-78
2023/04/21 08:08:06;;;;;;;10.95;6.63;;;12.90;99.90;;;;;;5125511;27;20118;-78
2023/04/21 08:10:33;;;;;;;18.20;7.13;;;13.00;99.90;;;;;;5125087;27;20042;-78
2023/04/21 08:12:58;;;;;;;16.25;6.80;;;13.10;99.90;;;;;;5106812;27;20070;-79
2023/04/21 08:15:24;;;;;;;18.48;7.18;;;13.30;99.90;;;;;;5106493;27;20389;-78
2023/04/21 08:17:50;;;;;;;15.65;7.97;;;13.40;99.90;;;;;;5088869;27;20039;-77
2023/04/21 08:20:16;;;;;;;14.73;6.65;;;13.60;99.90;;;;;;5105929;27;20050;-78
2023/04/21 08:22:42;;;;;;;12.52;7.07;;;13.80;99.90;;;;;;5124205;27;20391;-77
2023/04/21 08:25:08;;;;;;;17.63;6.63;;;14.10;99.90;;;;;;5089683;27;20127;-77
2023/04/21 08:27:38;;;;;;;16.33;6.47;;;14.20;99.90;;;;;;5124520;27;20042;-77
2023/04/21 08:30:06;;;;;;;15.95;7.07;;;14.30;99.90;;;;;;5106225;27;20055;-77
2023/04/21 08:32:31;;;;;;;22.67;7.20;;;14.40;99.90;;;;;;5124452;27;20047;-79
2023/04/21 08:34:57;;;;;;;16.33;6.13;;;14.50;99.90;;;;;;5105693;28;20088;-78
2023/04/21 08:37:23;;;;;;;20.13;7.05;;;14.60;99.90;;;;;;5106231;28;20055;-79
2023/04/21 08:39:53;;;;;;;24.17;6.85;;;14.70;99.90;;;;;;5088394;27;20051;-79
2023/04/21 08:42:19;;;;;;;10.10;6.90;;;14.80;99.90;;;;;;5090217;28;20079;-79
2023/04/21 08:44:45;;;;;;;18.95;7.50;;;14.80;99.90;;;;;;5105587;28;20086;-80
2023/04/21 08:47:13;;;;;;;22.25;11.48;;;14.90;99.90;;;;;;5105979;28;20043;-79
2023/04/21 08:49:41;;;;;;;18.63;6.60;;;15.00;99.90;;;;;;5105521;28;20043;-79
2023/04/21 08:52:07;;;;;;;22.00;8.00;;;15.10;99.90;;;;;;5088577;28;20047;-78
2023/04/21 08:54:37;;;;;;;16.33;6.45;;;15.20;99.90;;;;;;5106378;28;20105;-83
2023/04/21 08:57:03;;;;;;;15.35;6.90;;;15.20;99.90;;;;;;5104803;28;20039;-78
2023/04/21 08:59:29;;;;;;;14.10;6.50;;;15.30;99.90;;;;;;5074896;27;20160;-80
2023/04/21 09:02:15;;;;;;;17.60;8.27;;;15.40;99.90;;;;;;5092894;27;20113;-78
2023/04/21 09:04:50;;;;;;;17.90;6.75;;;15.50;99.90;;;;;;5110085;27;20051;-79
2023/04/21 09:07:33;;;;;;;18.80;7.28;;;15.60;99.90;;;;;;5109831;27;20083;-77
2023/04/21 09:10:02;;;;;;;;;;;15.70;99.90;;;;;;5110695;27;20386;-78
2023/04/21 09:12:28;;;;;;;14.32;6.75;;;15.80;99.90;;;;;;5110264;27;19998;-78
2023/04/21 09:14:57;;;;;;;17.70;6.55;;;15.90;99.90;;;;;;5109702;27;20489;-78
2023/04/21 09:17:31;;;;;;;14.40;6.22;;;15.90;99.90;;;;;;5110355;27;20108;-77
2023/04/21 09:20:10;;;;;;;12.27;6.35;;;16.00;99.90;;;;;;5128261;27;20067;-77
2023/04/21 09:22:37;;;;;;;14.20;6.00;;;16.10;99.90;;;;;;5109059;27;20039;-77
2023/04/21 09:25:03;;;;;;;17.02;6.63;;;16.30;99.90;;;;;;5109966;27;20047;-81
2023/04/21 09:27:28;;;;;;;13.07;6.25;;;16.40;99.90;;;;;;5092619;27;20525;-81
2023/04/21 09:30:01;;;;;;;13.50;6.03;;;16.50;99.90;;;;;;5110143;27;20084;-79
2023/04/21 09:32:26;;;;;;;8.32;5.30;;;16.70;99.90;;;;;;5109697;27;20410;-83
2023/04/21 09:34:59;;;;;;;17.67;6.47;;;16.70;99.90;;;;;;5075532;27;20043;-83
2023/04/21 09:37:25;;;;;;;12.30;5.43;;;16.80;99.90;;;;;;5109607;27;20047;-83
2023/04/21 09:39:51;;;;;;;18.52;6.38;;;16.90;99.90;;;;;;5092482;27;20035;-83
2023/04/21 09:42:16;;;;;;;13.50;6.68;;;17.00;99.90;;;;;;5075893;27;20074;-83
2023/04/21 09:44:42;;;;;;;13.82;6.18;;;17.20;99.90;;;;;;5109076;27;20057;-83
2023/04/21 09:47:14;;;;;;;10.75;6.20;;;17.30;99.90;;;;;;5109926;27;20065;-82
2023/04/21 09:49:43;;;;;;;13.90;5.82;;;17.40;99.90;;;;;;5108873;27;20521;-83
2023/04/21 09:52:11;;;;;;;18.70;5.65;;;17.50;99.90;;;;;;5109023;27;20233;-83
2023/04/21 09:54:44;;;;;;;18.92;5.78;;;17.60;99.90;;;;;;5109906;27;20051;-83
2023/04/21 09:57:12;;;;;;;14.77;5.32;;;17.60;99.90;;;;;;5108395;27;20054;-83
2023/04/21 09:59:44;;;;;;;24.90;5.93;;;17.60;99.90;;;;;;5075968;27;20071;-83
2023/04/21 10:02:11;;;;;;;15.70;5.70;;;17.80;99.90;;;;;;5108739;27;20479;-83
2023/04/21 10:04:40;;;;;;;15.65;5.90;;;17.90;99.90;;;;;;5108906;27;20486;-83
2023/04/21 10:07:06;;;;;;;12.82;6.03;;;18.00;99.90;;;;;;5108780;27;20078;-80
2023/04/21 10:09:44;;;;;;;19.27;6.05;;;18.10;99.90;;;;;;5126889;27;20077;-80
2023/04/21 10:12:12;;;;;;;11.60;5.75;;;18.20;99.90;;;;;;5091770;27;20057;-84
2023/04/21 10:14:37;;;;;;;14.35;5.68;;;18.20;99.90;;;;;;5108022;27;20047;-77
2023/04/21 10:17:05;;;;;;;10.68;5.03;;;18.30;99.90;;;;;;5092025;27;20130;-78
2023/04/21 10:19:37;;;;;;;12.23;5.75;;;18.40;99.90;;;;;;5092051;27;20410;-79
2023/04/21 10:22:06;;;;;;;14.00;5.93;;;18.50;99.90;;;;;;5126105;27;20043;-78
2023/04/21 10:24:37;;;;;;;12.95;6.00;;;18.60;99.90;;;;;;5126069;27;20047;-78
2023/04/21 10:27:02;;;;;;;12.93;5.60;;;18.80;99.90;;;;;;5106709;27;20436;-80
2023/04/21 10:29:29;;;;;;;13.65;5.72;;;18.90;99.90;;;;;;5107394;27;20052;-78
2023/04/21 10:31:56;;;;;;;16.77;6.13;;;18.90;99.90;;;;;;5108045;27;20043;-76
2023/04/21 10:34:36;;;;;;;14.73;5.63;;;19.00;99.90;;;;;;5108163;27;20135;-78
2023/04/21 10:37:05;;;;;;;13.25;5.25;;;19.20;99.90;;;;;;5126690;27;20408;-76
2023/04/21 10:39:35;;;;;;;16.05;5.88;;;19.20;99.90;;;;;;5107547;27;20039;-76
2023/04/21 10:42:16;;;;;;;17.08;6.07;;;19.30;99.90;;;;;;5108220;27;20082;-76
2023/04/21 10:44:57;;;;;;;12.15;5.68;;;19.30;99.90;;;;;;5126369;27;20107;-77
2023/04/21 10:47:32;;;;;;;20.00;6.05;;;19.30;99.90;;;;;;5126799;27;20051;-76
2023/04/21 10:49:59;;;;;;;12.25;5.20;;;19.30;99.90;;;;;;5107851;27;20520;-77
2023/04/21 10:52:34;;;;;;;13.20;5.05;;;19.50;99.90;;;;;;5107718;27;20047;-76
2023/04/21 10:55:00;;;;;;;11.43;5.30;;;19.60;99.90;;;;;;5127015;27;20039;-77
2023/04/21 10:57:30;;;;;;;18.92;6.13;;;19.60;99.90;;;;;;5126564;27;20482;-79
2023/04/21 10:59:56;;;;;;;13.98;5.80;;;19.70;99.90;;;;;;5107880;27;20051;-79
2023/04/21 11:02:22;;;;;;;12.63;5.03;;;19.80;99.90;;;;;;5126051;27;20065;-79
2023/04/21 11:04:54;;;;;;;13.60;4.47;;;19.90;99.90;;;;;;5126067;27;20043;-79
2023/04/21 11:07:24;;;;;;;20.15;5.22;;;19.90;99.00;;;;;;5108344;27;20624;-79
2023/04/21 11:10:16;;;;;;;11.45;4.85;;;20.00;98.20;;;;;;5126218;27;20067;-80
2023/04/21 11:12:42;;;;;;;19.95;4.80;;;20.10;96.40;;;;;;5107122;27;20073;-81
2023/04/21 11:15:10;;;;;;;12.73;4.18;;;20.10;97.70;;;;;;5109529;27;20035;-79
2023/04/21 11:17:42;;;;;;;9.30;5.20;;;20.30;98.00;;;;;;5126698;27;20303;-79
2023/04/21 11:20:08;;;;;;;12.95;4.45;;;21.10;97.70;;;;;;5110040;27;20102;-79
2023/04/21 11:22:36;;;;;;;6.40;3.80;;;20.60;96.10;;;;;;5109220;27;20043;-80
2023/04/21 11:25:03;;;;;;;13.55;4.40;;;21.30;94.90;;;;;;5093267;27;20043;-79
2023/04/21 11:27:29;;;;;;;12.32;3.88;;;20.60;94.70;;;;;;5128425;27;20035;-79
2023/04/21 11:29:56;;;;;;;14.55;4.10;;;20.60;94.70;;;;;;5109912;27;20047;-79
2023/04/21 11:32:22;;;;;;;10.02;3.92;;;20.50;94.10;;;;;;5109232;27;20043;-80
2023/04/21 11:34:49;;;;;;;9.98;4.55;;;20.60;93.30;;;;;;5129871;27;20498;-79
2023/04/21 11:37:19;;;;;;;12.82;3.92;;;20.50;93.00;;;;;;5093225;27;20126;-80
2023/04/21 11:39:45;;;;;;;10.18;3.90;;;20.60;92.10;;;;;;5111110;27;20074;-81
2023/04/21 11:42:11;;;;;;;16.27;4.15;;;20.60;92.30;;;;;;5129701;27;20031;-80
2023/04/21 11:44:41;;;;;;;13.98;4.00;;;20.70;91.80;;;;;;5107891;27;20126;-77
2023/04/21 11:47:19;;;;;;;19.95;4.82;;;20.70;90.60;;;;;;5103728;28;20062;-79
2023/04/21 11:49:53;;;;;;;10.90;4.10;;;20.80;90.30;;;;;;5105254;28;20505;-78
2023/04/21 11:52:33;;;;;;;10.93;4.35;;;20.90;90.40;;;;;;5104707;28;20040;-78
2023/04/21 11:54:59;;;;;;;16.75;3.40;;;21.10;90.20;;;;;;5105333;27;20061;-79
2023/04/21 11:57:27;;;;;;;13.38;3.65;;;21.30;90.40;;;;;;5086886;28;20498;-80
2023/04/21 11:59:52;;;;;;;12.98;4.30;;;21.30;89.30;;;;;;5104170;28;20040;-80
2023/04/21 12:02:27;;;;;;;10.30;3.30;;;21.10;87.70;;;;;;5104831;28;20058;-80
2023/04/21 12:05:04;;;;;;;15.38;4.10;;;21.00;87.30;;;;;;5105346;28;20078;-82
2023/04/21 12:07:40;;;;;;;16.27;7.38;;;20.60;88.00;;;;;;5106772;28;20051;-81
2023/04/21 12:10:10;;;;;;;13.00;4.20;;;21.20;88.10;;;;;;5106130;28;20051;-81
2023/04/21 12:12:38;;;;;;;14.88;4.35;;;21.30;89.20;;;;;;5107720;28;20358;-81
2023/04/21 12:15:07;;;;;;;20.20;4.88;;;21.30;88.90;;;;;;5107404;28;20065;-81
2023/04/21 12:17:59;;;;;;;11.13;4.07;;;21.30;88.40;;;;;;5107952;28;20426;-81
2023/04/21 12:20:28;;;;;;;20.38;4.90;;;21.20;85.10;;;;;;5102559;28;20060;-81
2023/04/21 12:22:55;;;;;;;10.70;4.15;;;21.30;86.80;;;;;;5105396;28;20331;-81
2023/04/21 12:25:21;;;;;;;13.15;4.55;;;21.30;86.70;;;;;;5105191;28;20048;-81
2023/04/21 12:27:51;;;;;;;8.77;4.10;;;21.20;86.00;;;;;;5105151;28;20055;-81
2023/04/21 12:30:17;;;;;;;14.90;4.43;;;21.10;85.90;;;;;;5086533;28;20039;-81
2023/04/21 12:32:43;;;;;;;11.98;4.40;;;21.20;86.30;;;;;;5103965;28;20058;-81
2023/04/21 12:35:10;;;;;;;10.15;4.50;;;21.20;85.60;;;;;;5085960;28;20122;-82
2023/04/21 12:37:36;;;;;;;9.38;4.80;;;21.20;85.50;;;;;;5103772;28;20043;-82